ADDS METAR Data INFO
IDs: Format: Raw Decoded Include TAF

Data at: 1517 UTC 11 Dec 2017

KFDK 111447Z 20003KT 10SM SCT050 04/M04 A3011
KFDK 111347Z 21003KT 10SM SCT050 02/M04 A3010
KFDK 111247Z 00000KT 10SM OVC050 02/M05 A3009
KFDK 111150Z AUTO 24004KT 10SM OVC050 01/M03 A3008 RMK AO2
KFDK 111145Z AUTO 23005KT 10SM OVC050 01/M04 A3008 RMK AO2
KFDK 111125Z AUTO 21003KT 10SM OVC050 01/M04 A3007 RMK AO2
KFDK 111105Z AUTO 21003KT 10SM OVC048 01/M03 A3007 RMK AO2
KFDK 111045Z AUTO 21003KT 10SM OVC050 01/M04 A3007 RMK AO2
KFDK 111025Z AUTO 00000KT 10SM OVC050 01/M05 A3007 RMK AO2
KFDK 111005Z AUTO 19003KT 10SM OVC050 01/M05 A3006 RMK AO2
KFDK 110945Z AUTO 19003KT 10SM OVC050 01/M05 A3006 RMK AO2
KFDK 110925Z AUTO 00000KT 10SM OVC055 01/M04 A3005 RMK AO2
KFDK 110905Z AUTO 00000KT 10SM OVC055 00/M03 A3005 RMK AO2
KFDK 110845Z AUTO 00000KT 10SM OVC055 00/M03 A3005 RMK AO2
KFDK 110825Z AUTO 00000KT 10SM OVC065 00/M05 A3005 RMK AO2
KFDK 110805Z AUTO 00000KT 10SM OVC065 00/M05 A3005 RMK AO2
KFDK 110745Z AUTO 00000KT 10SM OVC065 00/M04 A3005 RMK AO2
KFDK 110725Z AUTO 00000KT 10SM OVC065 00/M04 A3005 RMK AO2
KFDK 110705Z AUTO 00000KT 10SM OVC065 00/M05 A3004 RMK AO2
KFDK 110645Z AUTO 00000KT 10SM OVC065 00/M03 A3004 RMK AO2
KFDK 110625Z AUTO 00000KT 10SM BKN065 BKN080 OVC120 00/M04 A3004 RMK AO2
KFDK 110605Z AUTO 00000KT 10SM SCT080 BKN120 00/M03 A3004 RMK AO2
KFDK 110545Z AUTO 00000KT 10SM OVC070 00/M04 A3005 RMK AO2
KFDK 110525Z AUTO 00000KT 10SM OVC070 00/M05 A3006 RMK AO2
KFDK 110505Z AUTO 00000KT 10SM OVC080 00/M04 A3006 RMK AO2
KFDK 110445Z AUTO 00000KT 10SM OVC080 00/M03 A3006 RMK AO2
KFDK 110425Z AUTO 00000KT 10SM OVC080 00/M04 A3006 RMK AO2
KFDK 110405Z AUTO 00000KT 10SM BKN080 OVC100 00/M05 A3006 RMK AO2
KFDK 110345Z AUTO 00000KT 10SM SCT080 OVC100 00/M03 A3006 RMK AO2
KFDK 110325Z AUTO 00000KT 10SM OVC100 00/M03 A3006 RMK AO2
KFDK 110305Z AUTO 00000KT 10SM OVC100 00/M04 A3007 RMK AO2
KFDK 110245Z AUTO 00000KT 10SM OVC100 00/M03 A3007 RMK AO2
KFDK 110225Z AUTO 00000KT 10SM OVC100 00/M05 A3006 RMK AO2
KFDK 110205Z AUTO 00000KT 10SM OVC100 00/M05 A3007 RMK AO2
KFDK 110150Z 00000KT 10SM OVC100 01/M07 A3007
KFDK 110047Z 00000KT 10SM SCT070 M01/M06 A3007
KFDK 102347Z 00000KT 10SM SKC 01/M06 A3007
KFDK 102247Z 25005KT 10SM SKC 02/M08 A3006
KFDK 102147Z 27006KT 10SM SKC 03/M09 A3005
KFDK 102047Z 25011G18KT 10SM BKN050 03/M09 A3005
KFDK 101948Z 25011G18KT 10SM BKN050 04/M08 A3005
KFDK 101847Z 25010G14KT 10SM BKN046 04/M07 A3005
KFDK 101747Z 26007G15KT 10SM SCT050 03/M06 A3006
KFDK 101647Z 27007KT 10SM BKN037 OVC045 02/M06 A3007
KFDK 101547Z 30012K17KT 10SM BKN044 02/M06 A3007
KFDK 101447Z 28007KT 10SM SCT040 BKN055 02/M07 A3007
KFDK 101347Z 30007G14KT 10SM BKN040 02/M06 A3005
KFDK 101250Z 30004KT 10SM OVC046 01/M07 A3003
KFDK 101150Z AUTO 26004KT 10SM OVC046 01/M06 A3002 RMK AO2
KFDK 101145Z AUTO 24003KT 10SM OVC046 01/M06 A3001 RMK AO2
KFDK 101125Z AUTO 29004KT 10SM OVC048 01/M06 A3000 RMK AO2
KFDK 101105Z AUTO 26007KT 10SM OVC048 01/M06 A2998 RMK AO2
KFDK 101045Z AUTO 28004KT 10SM OVC046 01/M06 A2997 RMK AO2
KFDK 101025Z AUTO 30006KT 10SM OVC047 01/M06 A2996 RMK AO2
KFDK 101005Z AUTO 26007G17KT 10SM BKN050 01/M06 A2995 RMK AO2
KFDK 100945Z AUTO 27007KT 10SM BKN050 BKN120 00/M06 A2994 RMK AO2
KFDK 100925Z AUTO 26008G14KT 10SM BKN048 BKN055 00/M06 A2994 RMK AO2
KFDK 100905Z AUTO 00000KT 10SM BKN046 00/M05 A2993 RMK AO2
KFDK 100845Z AUTO 30004KT 10SM BKN048 BKN100 00/M06 A2992 RMK AO2
KFDK 100825Z AUTO 27005KT 10SM BKN048 OVC100 00/M06 A2992 RMK AO2
KFDK 100805Z AUTO 27003KT 10SM SCT048 OVC100 M01/M04 A2991 RMK AO2
KFDK 100745Z AUTO 00000KT 10SM OVC100 M01/M03 A2991 RMK AO2
KFDK 100725Z AUTO 15003KT 10SM BKN090 M01/M02 A2990 RMK AO2
KFDK 100705Z AUTO 00000KT 10SM OVC100 M01/M02 A2990 RMK AO2
KFDK 100645Z AUTO 00000KT 10SM OVC110 M01/M01 A2989 RMK AO2
KFDK 100625Z AUTO 00000KT 7SM BKN120 M01/M01 A2988 RMK AO2
KFDK 100605Z AUTO 16004KT 7SM SCT120 M02/M02 A2988 RMK AO2
KFDK 100545Z AUTO 16003KT 7SM SCT120 M02/M02 A2988 RMK AO2
KFDK 100525Z AUTO 18003KT 7SM CLR M01/M01 A2988 RMK AO2
KFDK 100505Z AUTO 00000KT 5SM BR CLR M02/M02 A2988 RMK AO2
KFDK 100445Z AUTO 00000KT 5SM BR SCT120 M02/M02 A2988 RMK AO2
KFDK 100425Z AUTO 00000KT 5SM BR CLR M02/M02 A2988 RMK AO2
KFDK 100405Z AUTO 16003KT 5SM BR SCT090 M02/M02 A2987 RMK AO2
KFDK 100345Z AUTO 15003KT 4SM BR SCT090 M03/M03 A2987 RMK AO2
KFDK 100325Z AUTO 00000KT 5SM BR CLR M03/M03 A2986 RMK AO2